Time;durP1;ratioP1;P1;durP2;ratioP2;P2;SDS_P1;SDS_P2;PMS_P1;PMS_P2;Temp;Humidity;BMP_temperature;BMP_pressure;BME280_temperature;BME280_humidity;BME280_pressure;Samples;Min_cycle;Max_cycle;Signal;HPM_P1;HPM_P2
2022/07/09 00:00:48;;;;;;;4.80;2.10;;;20.90;63.60;;;;;;5041088;28;20036;-84
2022/07/09 00:03:14;;;;;;;3.47;1.48;;;20.80;64.00;;;;;;5057565;28;20063;-84
2022/07/09 00:05:39;;;;;;;4.53;1.60;;;20.80;64.10;;;;;;5047519;28;20025;-84
2022/07/09 00:08:05;;;;;;;3.80;1.75;;;20.80;64.60;;;;;;5056713;28;20183;-84
2022/07/09 00:10:31;;;;;;;5.68;1.77;;;20.80;64.50;;;;;;5036760;28;20460;-84
2022/07/09 00:12:56;;;;;;;4.50;1.23;;;20.80;64.80;;;;;;5055740;28;20100;-84
2022/07/09 00:15:22;;;;;;;2.92;1.65;;;20.80;65.00;;;;;;5056528;28;20021;-84
2022/07/09 00:17:48;;;;;;;3.25;1.50;;;20.70;64.60;;;;;;5057539;28;20032;-83
2022/07/09 00:20:16;;;;;;;2.95;1.63;;;20.70;65.00;;;;;;5051911;28;20021;-83
2022/07/09 00:22:42;;;;;;;3.05;1.60;;;20.60;65.00;;;;;;5052579;28;20033;-84
2022/07/09 00:25:08;;;;;;;2.05;1.70;;;20.60;64.70;;;;;;5054580;28;20068;-84
2022/07/09 00:27:34;;;;;;;3.17;1.90;;;20.50;64.90;;;;;;5055461;28;20029;-84
2022/07/09 00:30:00;;;;;;;3.78;1.65;;;20.60;64.80;;;;;;5057698;28;20024;-84
2022/07/09 00:32:25;;;;;;;3.97;2.03;;;20.60;65.50;;;;;;5057739;28;20028;-84
2022/07/09 00:34:51;;;;;;;3.97;2.20;;;20.50;65.80;;;;;;5041432;28;20057;-84
2022/07/09 00:37:22;;;;;;;4.85;1.80;;;20.50;65.80;;;;;;5037364;28;20021;-83
2022/07/09 00:39:47;;;;;;;5.45;1.90;;;20.40;65.20;;;;;;5036094;28;20021;-84
2022/07/09 00:42:13;;;;;;;4.47;2.17;;;20.40;65.20;;;;;;5036061;28;20167;-84
2022/07/09 00:44:39;;;;;;;4.22;1.95;;;20.40;65.50;;;;;;5037255;28;20147;-84
2022/07/09 00:47:06;;;;;;;3.80;1.48;;;20.40;65.80;;;;;;5037038;28;20025;-84
2022/07/09 00:49:37;;;;;;;6.97;1.90;;;20.30;65.90;;;;;;5035600;28;20037;-84
2022/07/09 00:52:05;;;;;;;7.63;2.20;;;20.30;66.30;;;;;;5037235;28;20040;-84
2022/07/09 00:54:31;;;;;;;6.25;2.08;;;20.30;66.00;;;;;;5036922;28;20049;-84
2022/07/09 00:56:58;;;;;;;5.43;2.03;;;20.30;66.00;;;;;;5036872;28;20439;-84
2022/07/09 00:59:24;;;;;;;4.70;2.10;;;20.30;66.00;;;;;;5036471;28;20029;-84
2022/07/09 01:01:50;;;;;;;2.97;2.08;;;20.20;65.90;;;;;;5055243;28;20024;-83
2022/07/09 01:04:16;;;;;;;6.85;2.13;;;20.30;65.70;;;;;;5055457;28;20101;-84
2022/07/09 01:06:42;;;;;;;2.90;2.20;;;20.20;65.60;;;;;;5056856;28;20424;-84
2022/07/09 01:09:07;;;;;;;3.33;2.15;;;20.20;65.40;;;;;;5047089;28;20488;-84
2022/07/09 01:11:36;;;;;;;2.50;1.95;;;20.10;65.20;;;;;;5036565;28;20030;-84
2022/07/09 01:14:01;;;;;;;5.93;2.30;;;20.10;65.30;;;;;;5036596;28;20026;-84
2022/07/09 01:16:32;;;;;;;4.30;2.33;;;20.00;65.70;;;;;;5039484;28;20036;-84
2022/07/09 01:18:58;;;;;;;5.20;2.55;;;20.00;65.40;;;;;;5056457;28;20100;-83
2022/07/09 01:21:24;;;;;;;5.75;2.20;;;20.00;65.60;;;;;;5056370;28;20159;-83
2022/07/09 01:23:50;;;;;;;4.50;2.53;;;19.90;65.80;;;;;;5052967;28;20025;-83
2022/07/09 01:26:16;;;;;;;3.00;2.00;;;19.90;65.40;;;;;;5054880;28;20039;-83
2022/07/09 01:28:41;;;;;;;3.30;2.03;;;19.80;65.70;;;;;;5054958;28;20036;-83
2022/07/09 01:31:07;;;;;;;3.92;2.50;;;19.80;66.10;;;;;;5056133;28;20451;-83
2022/07/09 01:33:33;;;;;;;5.40;2.72;;;19.80;65.80;;;;;;5042275;28;20491;-84
2022/07/09 01:35:59;;;;;;;6.22;2.80;;;19.80;66.10;;;;;;5036538;28;20068;-84
2022/07/09 01:38:24;;;;;;;6.00;2.35;;;19.80;65.70;;;;;;5036147;28;20025;-84
2022/07/09 01:40:50;;;;;;;3.95;2.90;;;19.70;66.00;;;;;;5035215;28;20022;-83
2022/07/09 01:43:16;;;;;;;3.95;2.17;;;19.70;66.40;;;;;;5046653;28;20021;-84
2022/07/09 01:45:42;;;;;;;6.68;3.13;;;19.60;66.50;;;;;;5056241;28;20107;-83
2022/07/09 01:48:08;;;;;;;3.45;2.47;;;19.60;66.50;;;;;;5054942;28;20820;-83
2022/07/09 01:50:33;;;;;;;4.85;2.92;;;19.50;66.80;;;;;;5037843;28;20033;-83
2022/07/09 01:52:59;;;;;;;6.43;2.80;;;19.50;66.90;;;;;;5035814;28;20041;-83
2022/07/09 01:55:25;;;;;;;3.75;2.60;;;19.50;66.70;;;;;;5034827;28;20034;-83
2022/07/09 01:57:50;;;;;;;6.30;2.63;;;19.50;66.80;;;;;;5036114;28;20109;-83
2022/07/09 02:00:18;;;;;;;6.18;3.45;;;19.40;67.10;;;;;;5042261;28;20490;-83
2022/07/09 02:02:46;;;;;;;5.40;2.78;;;19.40;66.70;;;;;;5052686;28;20185;-83
2022/07/09 02:05:12;;;;;;;8.57;3.42;;;19.40;66.70;;;;;;5035682;28;20041;-84
2022/07/09 02:07:38;;;;;;;8.07;3.13;;;19.40;66.40;;;;;;5034662;28;20033;-83
2022/07/09 02:10:04;;;;;;;6.85;3.10;;;19.40;66.40;;;;;;5035342;28;20120;-83
2022/07/09 02:12:30;;;;;;;4.88;2.75;;;19.40;67.10;;;;;;5035292;28;20569;-83
2022/07/09 02:14:56;;;;;;;5.80;3.20;;;19.30;66.90;;;;;;5034503;28;20494;-83
2022/07/09 02:17:22;;;;;;;4.47;2.70;;;19.30;67.10;;;;;;5040968;28;20032;-83
2022/07/09 02:19:50;;;;;;;4.00;3.03;;;19.30;66.90;;;;;;5054213;28;20430;-83
2022/07/09 02:22:16;;;;;;;4.57;3.00;;;19.20;67.00;;;;;;5049678;28;20589;-83
2022/07/09 02:24:41;;;;;;;6.18;3.05;;;19.20;67.10;;;;;;5035273;28;20076;-83
2022/07/09 02:27:07;;;;;;;5.28;3.33;;;19.20;67.00;;;;;;5035454;28;20022;-83
2022/07/09 02:29:33;;;;;;;5.53;3.20;;;19.30;66.70;;;;;;5035305;28;20033;-83
2022/07/09 02:31:58;;;;;;;3.28;2.67;;;19.20;66.50;;;;;;5035265;28;20044;-84
2022/07/09 02:34:24;;;;;;;5.63;3.17;;;19.20;66.50;;;;;;5036820;28;20036;-83
2022/07/09 02:37:00;;;;;;;7.35;3.50;;;19.20;66.80;;;;;;5055164;28;20120;-82
2022/07/09 02:39:26;;;;;;;4.22;2.92;;;19.20;66.40;;;;;;5043556;28;20496;-83
2022/07/09 02:41:52;;;;;;;5.70;3.50;;;19.20;66.80;;;;;;5035148;28;20029;-83
2022/07/09 02:44:17;;;;;;;6.78;3.42;;;19.10;66.70;;;;;;5034102;28;20025;-84
2022/07/09 02:46:43;;;;;;;4.20;3.17;;;19.10;66.90;;;;;;5033546;28;20025;-83
2022/07/09 02:49:10;;;;;;;4.03;2.88;;;19.00;66.80;;;;;;5035568;28;20037;-83
2022/07/09 02:51:36;;;;;;;5.57;2.70;;;19.00;67.10;;;;;;5035151;28;20032;-83
2022/07/09 02:54:01;;;;;;;5.78;3.40;;;19.00;66.90;;;;;;5034069;28;20037;-83
2022/07/09 02:56:27;;;;;;;8.18;3.53;;;18.90;66.90;;;;;;5035015;28;20026;-83
2022/07/09 02:58:53;;;;;;;5.63;3.22;;;18.90;67.30;;;;;;5035060;28;20048;-83
2022/07/09 03:01:18;;;;;;;4.97;3.00;;;18.80;68.10;;;;;;5042950;28;20026;-83
2022/07/09 03:03:44;;;;;;;5.65;3.58;;;18.80;68.40;;;;;;5033036;28;20051;-83
2022/07/09 03:06:09;;;;;;;6.28;3.15;;;18.80;68.10;;;;;;5035817;28;20025;-83
2022/07/09 03:08:35;;;;;;;5.13;3.00;;;18.70;67.90;;;;;;5038929;28;20484;-84
2022/07/09 03:11:05;;;;;;;5.05;2.90;;;18.70;68.10;;;;;;5038871;28;20021;-83
2022/07/09 03:13:31;;;;;;;4.53;3.38;;;18.60;68.50;;;;;;5039196;28;20033;-84
2022/07/09 03:15:57;;;;;;;6.28;3.05;;;18.50;68.70;;;;;;5037592;28;20519;-83
2022/07/09 03:18:22;;;;;;;6.78;3.30;;;18.50;68.50;;;;;;5052474;28;20063;-83
2022/07/09 03:20:48;;;;;;;7.70;3.40;;;18.50;68.50;;;;;;5058592;28;20032;-83
2022/07/09 03:23:14;;;;;;;4.00;2.85;;;18.50;68.70;;;;;;5042279;28;20028;-83
2022/07/09 03:25:39;;;;;;;7.57;3.30;;;18.40;68.50;;;;;;5037031;28;20048;-83
2022/07/09 03:28:23;;;;;;;5.53;3.47;;;18.30;69.10;;;;;;5038593;28;20061;-83
2022/07/09 03:30:48;;;;;;;4.05;2.80;;;18.20;69.40;;;;;;5038449;28;20021;-83
2022/07/09 03:33:14;;;;;;;3.80;2.80;;;18.20;69.20;;;;;;5038463;28;20034;-83
2022/07/09 03:35:39;;;;;;;5.40;3.13;;;18.20;68.90;;;;;;5038596;28;20081;-83
2022/07/09 03:38:05;;;;;;;6.03;3.00;;;18.10;69.00;;;;;;5037407;28;20025;-83
2022/07/09 03:40:31;;;;;;;4.35;2.97;;;18.10;69.10;;;;;;5053670;28;20143;-83
2022/07/09 03:42:57;;;;;;;4.68;2.97;;;18.00;69.80;;;;;;5056726;28;20088;-83
2022/07/09 03:45:22;;;;;;;6.65;3.42;;;17.90;69.90;;;;;;5058228;28;20059;-83
2022/07/09 03:47:48;;;;;;;4.93;3.17;;;18.00;69.50;;;;;;5049926;28;20025;-83
2022/07/09 03:50:14;;;;;;;5.55;3.17;;;18.00;70.00;;;;;;5038058;28;20040;-83
2022/07/09 03:52:40;;;;;;;5.15;3.20;;;18.00;69.70;;;;;;5038315;28;20029;-83
2022/07/09 03:55:06;;;;;;;4.72;2.67;;;18.00;69.00;;;;;;5038105;28;20067;-83
2022/07/09 03:57:32;;;;;;;6.07;3.42;;;18.00;69.50;;;;;;5044102;28;20052;-83
2022/07/09 03:59:58;;;;;;;4.45;2.78;;;18.00;69.30;;;;;;5056432;28;20095;-83
2022/07/09 04:02:25;;;;;;;4.90;3.40;;;18.00;69.30;;;;;;5057990;28;20021;-83
2022/07/09 04:04:51;;;;;;;4.53;3.28;;;18.00;69.10;;;;;;5052353;28;20060;-83
2022/07/09 04:07:17;;;;;;;4.88;3.33;;;18.00;68.90;;;;;;5037895;28;20032;-83
2022/07/09 04:09:42;;;;;;;6.68;3.60;;;18.00;69.30;;;;;;5037969;28;20025;-84
2022/07/09 04:12:08;;;;;;;5.57;3.28;;;18.00;69.60;;;;;;5037769;28;20037;-83
2022/07/09 04:14:34;;;;;;;5.45;3.42;;;18.00;69.70;;;;;;5037847;28;20499;-84
2022/07/09 04:17:00;;;;;;;6.53;3.63;;;18.00;70.20;;;;;;5039848;28;20025;-83
2022/07/09 04:19:26;;;;;;;7.57;3.42;;;18.00;69.90;;;;;;5057502;28;20055;-83
2022/07/09 04:21:51;;;;;;;6.35;3.80;;;18.00;70.00;;;;;;5050189;28;20472;-83
2022/07/09 04:24:17;;;;;;;5.57;3.75;;;18.00;70.80;;;;;;5037560;28;20087;-83
2022/07/09 04:26:43;;;;;;;7.05;3.40;;;17.90;70.40;;;;;;5037621;28;20032;-84
2022/07/09 04:29:08;;;;;;;5.97;3.97;;;18.00;70.30;;;;;;5037447;28;20132;-83
2022/07/09 04:31:34;;;;;;;7.00;3.65;;;18.00;70.30;;;;;;5036331;28;20033;-83
2022/07/09 04:34:00;;;;;;;5.18;3.55;;;18.00;70.20;;;;;;5036038;28;20025;-83
2022/07/09 04:36:27;;;;;;;6.68;4.55;;;18.00;70.50;;;;;;5037184;28;20040;-83
2022/07/09 04:38:53;;;;;;;6.40;4.38;;;18.00;71.40;;;;;;5037392;28;20014;-83
2022/07/09 04:41:19;;;;;;;7.35;4.55;;;18.00;71.40;;;;;;5037145;28;20030;-83
2022/07/09 04:43:44;;;;;;;8.93;5.13;;;18.00;71.40;;;;;;5037088;28;20030;-84
2022/07/09 04:46:10;;;;;;;7.03;4.30;;;18.20;70.90;;;;;;5037298;28;20026;-83
2022/07/09 04:48:36;;;;;;;8.38;4.85;;;18.10;71.40;;;;;;5036854;28;20511;-83
2022/07/09 04:51:01;;;;;;;10.40;5.38;;;18.20;71.00;;;;;;5037190;28;20033;-83
2022/07/09 04:53:27;;;;;;;9.05;4.22;;;18.20;70.90;;;;;;5019077;28;20033;-83
2022/07/09 04:55:53;;;;;;;9.98;6.05;;;18.20;70.90;;;;;;5036588;28;20029;-83
2022/07/09 04:58:18;;;;;;;7.22;4.57;;;18.30;70.80;;;;;;5036786;28;20033;-83
2022/07/09 05:00:44;;;;;;;8.20;4.28;;;18.20;70.80;;;;;;5043474;28;20017;-83
2022/07/09 05:03:09;;;;;;;12.50;5.47;;;18.20;71.00;;;;;;5036564;28;20048;-84
2022/07/09 05:05:35;;;;;;;8.35;5.03;;;18.20;71.10;;;;;;5044291;28;20484;-84
2022/07/09 05:08:01;;;;;;;10.88;5.47;;;18.20;71.20;;;;;;5039684;28;20025;-83
2022/07/09 05:10:27;;;;;;;10.10;5.28;;;18.20;71.50;;;;;;5035574;28;20026;-84
2022/07/09 05:12:53;;;;;;;7.65;4.63;;;18.30;71.60;;;;;;5054183;28;20033;-84
2022/07/09 05:15:18;;;;;;;11.10;5.50;;;18.30;71.20;;;;;;5056094;28;20454;-84
2022/07/09 05:17:44;;;;;;;12.75;5.50;;;18.30;71.50;;;;;;5052580;28;20067;-84
2022/07/09 05:20:10;;;;;;;14.93;6.20;;;18.30;71.70;;;;;;5056336;28;20028;-84
2022/07/09 05:22:37;;;;;;;10.57;6.07;;;18.30;72.00;;;;;;5056316;28;20086;-83
2022/07/09 05:25:04;;;;;;;10.32;5.65;;;18.30;72.10;;;;;;5049196;28;20144;-83
2022/07/09 05:27:29;;;;;;;10.40;5.97;;;18.30;72.00;;;;;;5036196;28;20496;-84
2022/07/09 05:29:55;;;;;;;13.50;6.97;;;18.30;71.90;;;;;;5034633;28;20051;-84
2022/07/09 05:32:21;;;;;;;13.38;6.63;;;18.30;72.20;;;;;;5034495;28;20523;-84
2022/07/09 05:34:46;;;;;;;12.48;6.03;;;18.40;72.20;;;;;;5036009;28;20431;-84
2022/07/09 05:37:12;;;;;;;12.50;5.85;;;18.40;72.00;;;;;;5043261;28;20106;-84
2022/07/09 05:39:38;;;;;;;11.77;6.63;;;18.40;72.40;;;;;;5037692;28;20022;-84
2022/07/09 05:42:04;;;;;;;11.85;6.80;;;18.40;72.70;;;;;;5034893;28;20018;-84
2022/07/09 05:44:30;;;;;;;13.77;6.18;;;18.40;72.50;;;;;;5035970;28;20033;-83
2022/07/09 05:46:56;;;;;;;12.85;6.80;;;18.50;72.50;;;;;;5035963;28;20056;-84
2022/07/09 05:49:22;;;;;;;14.02;7.68;;;18.50;72.80;;;;;;5035431;28;20032;-84
2022/07/09 05:51:47;;;;;;;13.32;7.32;;;18.50;72.80;;;;;;5045505;28;20033;-83
2022/07/09 05:54:14;;;;;;;14.75;7.57;;;18.50;73.20;;;;;;5050752;28;20100;-83
2022/07/09 05:56:41;;;;;;;13.63;6.78;;;18.50;74.20;;;;;;5055625;28;20028;-84
2022/07/09 05:59:06;;;;;;;10.95;6.70;;;18.50;73.60;;;;;;5054650;28;20025;-84
2022/07/09 06:01:32;;;;;;;9.65;6.30;;;18.60;72.90;;;;;;5055675;28;20485;-84
2022/07/09 06:03:58;;;;;;;10.73;6.70;;;18.60;73.70;;;;;;5055525;28;20415;-83
2022/07/09 06:06:24;;;;;;;12.35;6.38;;;18.60;73.60;;;;;;5054169;28;20044;-83
2022/07/09 06:08:51;;;;;;;10.75;5.45;;;18.60;73.60;;;;;;5053425;28;20185;-83
2022/07/09 06:11:17;;;;;;;10.82;6.00;;;18.70;73.00;;;;;;5049816;28;20025;-83
2022/07/09 06:13:43;;;;;;;9.70;5.55;;;18.70;73.50;;;;;;5035593;28;20025;-84
2022/07/09 06:16:08;;;;;;;10.70;5.80;;;18.70;73.50;;;;;;5035376;28;20033;-83
2022/07/09 06:18:34;;;;;;;8.15;4.75;;;18.70;73.10;;;;;;5045910;28;20101;-82
2022/07/09 06:21:01;;;;;;;10.23;5.80;;;18.80;72.90;;;;;;5045935;28;20107;-86
2022/07/09 06:23:27;;;;;;;8.77;5.53;;;18.80;73.10;;;;;;5041797;28;20120;-86
2022/07/09 06:25:52;;;;;;;10.68;5.75;;;18.80;73.50;;;;;;5042978;28;20057;-84
2022/07/09 06:28:18;;;;;;;10.90;5.65;;;18.80;73.20;;;;;;5044250;28;20025;-82
2022/07/09 06:30:44;;;;;;;7.95;4.93;;;18.80;73.60;;;;;;5040768;28;20025;-81
2022/07/09 06:33:09;;;;;;;11.77;4.55;;;18.90;74.00;;;;;;5041839;28;20029;-82
2022/07/09 06:35:35;;;;;;;11.35;5.03;;;18.90;73.40;;;;;;5044659;28;20074;-80
2022/07/09 06:38:01;;;;;;;9.60;4.32;;;19.00;73.10;;;;;;5039430;28;20458;-82
2022/07/09 06:40:26;;;;;;;6.95;4.60;;;19.00;72.90;;;;;;5043723;28;20060;-81
2022/07/09 06:42:52;;;;;;;9.60;4.30;;;19.00;73.10;;;;;;5043267;28;20017;-82
2022/07/09 06:45:18;;;;;;;6.97;4.13;;;19.10;73.40;;;;;;5046122;28;20030;-79
2022/07/09 06:47:44;;;;;;;5.30;3.47;;;19.10;73.50;;;;;;5041550;28;20078;-80
2022/07/09 06:50:10;;;;;;;6.93;3.72;;;19.10;74.20;;;;;;5042580;28;20070;-82
2022/07/09 06:52:35;;;;;;;5.13;3.22;;;19.10;74.90;;;;;;5043492;28;20120;-83
2022/07/09 06:55:01;;;;;;;4.65;3.30;;;19.20;75.30;;;;;;5036203;28;20064;-85
2022/07/09 06:57:26;;;;;;;10.52;3.55;;;19.20;75.10;;;;;;5047166;28;20037;-85
2022/07/09 06:59:52;;;;;;;6.95;3.40;;;19.30;74.80;;;;;;5036890;28;20031;-83
2022/07/09 07:02:18;;;;;;;8.05;3.05;;;19.30;74.10;;;;;;5053553;28;20041;-85
2022/07/09 07:04:44;;;;;;;6.22;3.85;;;19.40;74.00;;;;;;5054694;28;20083;-86
2022/07/09 07:07:10;;;;;;;7.97;3.30;;;19.50;74.50;;;;;;5054766;28;20088;-83
2022/07/09 07:09:35;;;;;;;4.57;2.88;;;19.60;75.00;;;;;;5037201;28;20080;-87
2022/07/09 07:12:01;;;;;;;6.68;3.03;;;19.70;74.40;;;;;;5047504;28;20040;-89
2022/07/09 07:14:27;;;;;;;4.60;2.65;;;19.70;74.30;;;;;;5052283;28;20491;-90
2022/07/09 07:16:53;;;;;;;4.68;2.83;;;19.80;73.90;;;;;;5047085;28;20060;-86
2022/07/09 07:19:22;;;;;;;5.38;3.05;;;19.90;73.70;;;;;;5040610;28;20033;-86
2022/07/09 07:21:48;;;;;;;4.70;2.93;;;20.00;73.70;;;;;;5038903;28;20380;-86
2022/07/09 07:24:14;;;;;;;5.63;2.53;;;20.10;72.50;;;;;;5035339;28;20100;-84
2022/07/09 07:26:40;;;;;;;6.70;2.53;;;20.20;72.70;;;;;;5041159;28;20038;-85
2022/07/09 07:29:06;;;;;;;6.25;2.75;;;20.30;72.80;;;;;;5040094;28;20052;-85
2022/07/09 07:31:32;;;;;;;3.15;1.85;;;20.40;72.00;;;;;;5038649;28;20139;-88
2022/07/09 07:33:59;;;;;;;3.50;2.67;;;20.60;71.70;;;;;;5042942;28;20488;-88
2022/07/09 07:36:25;;;;;;;2.13;1.73;;;20.90;70.80;;;;;;5041425;28;20040;-90
2022/07/09 07:38:51;;;;;;;5.65;2.30;;;21.80;68.70;;;;;;5035420;28;20037;-87
2022/07/09 07:41:18;;;;;;;3.10;1.95;;;23.00;65.40;;;;;;5032802;28;20554;-87
2022/07/09 07:43:44;;;;;;;4.50;1.65;;;24.60;61.00;;;;;;5032284;28;20049;-83
2022/07/09 07:46:11;;;;;;;2.65;1.40;;;27.80;52.00;;;;;;5042100;28;20048;-86
2022/07/09 07:48:37;;;;;;;3.33;1.42;;;30.80;46.20;;;;;;5041126;28;20057;-84
2022/07/09 07:51:04;;;;;;;4.45;2.10;;;33.20;40.00;;;;;;5050901;28;20443;-84
2022/07/09 07:53:33;;;;;;;2.70;1.60;;;35.00;36.10;;;;;;5040794;28;20031;-83
2022/07/09 07:56:06;;;;;;;2.00;1.30;;;36.40;33.30;;;;;;5057829;28;20029;-84
2022/07/09 07:58:32;;;;;;;3.20;1.52;;;37.60;32.10;;;;;;5073064;28;20029;-85
2022/07/09 08:00:58;;;;;;;1.85;1.20;;;38.40;30.40;;;;;;5041753;28;20187;-84
2022/07/09 08:03:23;;;;;;;1.70;1.13;;;39.20;29.90;;;;;;5036819;28;20049;-85
2022/07/09 08:05:49;;;;;;;2.65;1.27;;;39.70;28.40;;;;;;5049133;28;20033;-84
2022/07/09 08:08:15;;;;;;;2.15;1.20;;;40.20;28.20;;;;;;5055686;28;20100;-84
2022/07/09 08:10:41;;;;;;;3.20;1.20;;;40.70;27.30;;;;;;5039951;28;20040;-86
2022/07/09 08:13:07;;;;;;;3.03;1.60;;;41.10;26.90;;;;;;5044335;28;20013;-86
2022/07/09 08:15:32;;;;;;;2.45;1.25;;;41.50;26.30;;;;;;5040823;28;20533;-86
2022/07/09 08:17:58;;;;;;;3.35;1.50;;;41.80;25.70;;;;;;5053788;28;20059;-86
2022/07/09 08:20:24;;;;;;;1.90;1.25;;;42.10;25.90;;;;;;5043830;28;20050;-86
2022/07/09 08:22:49;;;;;;;2.88;1.55;;;42.30;25.60;;;;;;5043865;28;20184;-86
2022/07/09 08:25:15;;;;;;;3.28;1.48;;;42.50;24.70;;;;;;5043271;28;20496;-86
2022/07/09 08:27:41;;;;;;;2.17;1.35;;;42.50;25.10;;;;;;5040495;28;20094;-86
2022/07/09 08:30:07;;;;;;;3.30;1.23;;;42.80;24.50;;;;;;5047489;28;20033;-84
2022/07/09 08:32:33;;;;;;;3.08;1.48;;;42.90;24.60;;;;;;5039851;28;20592;-87
2022/07/09 08:34:59;;;;;;;2.30;1.05;;;42.80;24.80;;;;;;5041540;28;20029;-87
2022/07/09 08:37:24;;;;;;;2.58;1.20;;;43.10;24.30;;;;;;5048428;28;20027;-85
2022/07/09 08:39:51;;;;;;;2.35;1.50;;;43.30;24.50;;;;;;5036400;28;20041;-84
2022/07/09 08:42:16;;;;;;;1.75;1.17;;;43.20;24.40;;;;;;5040727;28;20091;-83
2022/07/09 08:44:47;;;;;;;3.72;1.20;;;43.10;24.20;;;;;;5041926;28;20037;-83
2022/07/09 08:47:15;;;;;;;2.75;1.30;;;43.10;23.70;;;;;;5043708;28;20033;-83
2022/07/09 08:49:40;;;;;;;;;;;43.10;24.30;;;;;;5047881;28;20033;-84
2022/07/09 08:52:07;;;;;;;2.45;1.63;;;43.10;24.00;;;;;;5047514;28;19966;-85
2022/07/09 08:54:37;;;;;;;2.70;1.20;;;43.10;24.10;;;;;;5043771;28;20022;-83
2022/07/09 08:57:07;;;;;;;3.65;1.30;;;43.10;23.80;;;;;;5040652;28;20071;-84
2022/07/09 08:59:33;;;;;;;2.95;2.28;;;42.90;24.10;;;;;;5045137;28;20025;-82
2022/07/09 09:02:04;;;;;;;4.32;1.33;;;43.00;24.60;;;;;;5043434;28;20029;-92
2022/07/09 09:04:30;;;;;;;2.13;1.10;;;43.10;23.90;;;;;;5049203;28;20119;-81
2022/07/09 09:06:56;;;;;;;2.75;1.05;;;43.20;23.70;;;;;;5038244;28;20122;-82
2022/07/09 09:09:21;;;;;;;2.75;1.40;;;43.30;24.10;;;;;;5035374;28;20389;-82
2022/07/09 09:11:50;;;;;;;3.00;1.27;;;43.60;23.40;;;;;;5045179;28;20043;-83
2022/07/09 09:14:22;;;;;;;2.65;1.50;;;43.70;24.10;;;;;;5048189;28;20034;-83
2022/07/09 09:16:48;;;;;;;2.72;1.10;;;43.80;23.20;;;;;;5039861;28;20033;-79
2022/07/09 09:19:13;;;;;;;2.42;1.35;;;44.00;23.20;;;;;;5044637;28;20044;-84
2022/07/09 09:21:39;;;;;;;3.45;1.10;;;44.20;23.00;;;;;;5035613;28;20032;-79
2022/07/09 09:24:05;;;;;;;3.05;1.00;;;44.30;22.60;;;;;;5038623;28;20026;-84
2022/07/09 09:26:33;;;;;;;2.90;0.93;;;44.30;22.80;;;;;;5042518;28;20021;-85
2022/07/09 09:29:04;;;;;;;2.67;1.10;;;44.40;21.90;;;;;;5042650;28;20030;-84
2022/07/09 09:31:34;;;;;;;2.38;0.90;;;44.30;22.10;;;;;;5040817;28;20049;-89
2022/07/09 09:34:07;;;;;;;1.70;1.10;;;44.40;21.90;;;;;;5047798;28;20025;-85
2022/07/09 09:36:43;;;;;;;2.10;1.02;;;44.50;22.40;;;;;;5040651;28;20104;-90
2022/07/09 09:39:26;;;;;;;1.42;1.05;;;44.60;21.70;;;;;;5036136;28;20061;-87
2022/07/09 09:41:53;;;;;;;3.17;1.10;;;44.60;21.80;;;;;;5035050;28;20021;-81
2022/07/09 09:44:37;;;;;;;1.95;0.93;;;44.80;21.90;;;;;;5035176;28;20441;-81
2022/07/09 09:47:04;;;;;;;3.03;1.00;;;44.70;21.70;;;;;;5036807;28;20024;-85
2022/07/09 09:49:30;;;;;;;1.40;0.90;;;44.80;21.70;;;;;;5040550;28;20114;-84
2022/07/09 09:52:08;;;;;;;2.47;1.10;;;44.90;20.70;;;;;;5042488;28;20017;-82
2022/07/09 09:54:38;;;;;;;2.25;2.00;;;44.90;21.50;;;;;;5047740;28;20061;-86
2022/07/09 09:57:09;;;;;;;1.80;0.80;;;44.80;21.40;;;;;;5054029;28;20033;-86
2022/07/09 09:59:40;;;;;;;2.03;0.98;;;44.60;20.60;;;;;;5051917;28;20108;-84
2022/07/09 10:02:09;;;;;;;1.70;0.90;;;44.40;21.20;;;;;;5035603;28;20028;-82
2022/07/09 10:04:36;;;;;;;2.35;1.00;;;44.30;21.70;;;;;;5053917;28;20095;-82
2022/07/09 10:07:03;;;;;;;;;;;44.30;21.10;;;;;;5042712;28;20056;-84
2022/07/09 10:09:29;;;;;;;1.30;0.95;;;44.50;21.50;;;;;;5048916;28;19963;-82
2022/07/09 10:11:54;;;;;;;2.45;1.70;;;44.70;21.60;;;;;;5044789;28;20037;-89
2022/07/09 10:14:23;;;;;;;3.15;1.20;;;44.60;20.60;;;;;;5036240;28;20033;-86
2022/07/09 10:16:49;;;;;;;2.17;1.23;;;44.60;21.00;;;;;;5040375;28;20103;-84
2022/07/09 10:19:28;;;;;;;2.47;1.38;;;44.40;21.10;;;;;;5043317;28;20044;-88
2022/07/09 10:21:55;;;;;;;2.65;1.30;;;44.10;21.40;;;;;;5050454;28;20025;-84
2022/07/09 10:24:25;;;;;;;;;;;44.10;22.10;;;;;;5041007;28;20030;-87
2022/07/09 10:26:51;;;;;;;3.15;1.75;;;44.10;21.80;;;;;;5051531;28;19915;-86
2022/07/09 10:29:26;;;;;;;4.03;1.70;;;44.10;21.90;;;;;;5043763;28;20060;-88
2022/07/09 10:31:53;;;;;;;9.95;3.25;;;43.90;21.30;;;;;;5034767;28;20120;-86
2022/07/09 10:34:28;;;;;;;7.90;3.45;;;42.90;21.80;;;;;;5036068;28;20078;-89
2022/07/09 10:37:06;;;;;;;2.30;1.80;;;42.70;22.40;;;;;;5043673;28;20106;-87
2022/07/09 10:39:34;;;;;;;2.38;1.10;;;42.30;21.70;;;;;;5035929;28;20022;-86
2022/07/09 10:42:04;;;;;;;;;;;42.20;22.80;;;;;;5036076;28;20026;-84
2022/07/09 10:44:35;;;;;;;2.33;1.25;;;41.70;22.90;;;;;;5034436;28;19916;-84
2022/07/09 10:47:03;;;;;;;4.50;1.20;;;40.80;24.00;;;;;;5036227;28;20040;-86
2022/07/09 10:49:29;;;;;;;5.93;1.20;;;39.80;24.90;;;;;;5035765;28;20108;-87
2022/07/09 10:51:58;;;;;;;2.42;1.20;;;38.90;26.00;;;;;;5039604;28;20539;-87
2022/07/09 10:54:24;;;;;;;1.80;0.90;;;38.10;26.60;;;;;;5034626;28;20052;-85
2022/07/09 10:56:51;;;;;;;2.05;1.15;;;37.60;27.80;;;;;;5046376;28;20376;-84
2022/07/09 10:59:20;;;;;;;2.75;1.30;;;37.10;27.40;;;;;;5035826;28;20021;-86
2022/07/09 11:01:46;;;;;;;4.13;1.48;;;36.80;27.50;;;;;;5049563;28;20033;-87
2022/07/09 11:04:12;;;;;;;2.70;1.30;;;36.60;28.60;;;;;;5043859;28;20524;-84
2022/07/09 11:06:45;;;;;;;2.13;1.48;;;36.10;28.90;;;;;;5054870;28;20055;-89
2022/07/09 11:09:12;;;;;;;2.85;1.17;;;36.00;29.60;;;;;;5053831;28;20032;-84
2022/07/09 11:11:41;;;;;;;5.50;1.38;;;35.80;29.20;;;;;;5040917;28;20026;-85
2022/07/09 11:14:06;;;;;;;3.37;1.30;;;35.40;30.90;;;;;;5045233;28;20108;-86
2022/07/09 11:16:32;;;;;;;2.80;1.70;;;35.30;31.10;;;;;;5054384;28;20060;-86
2022/07/09 11:18:58;;;;;;;2.42;1.17;;;35.30;32.20;;;;;;5040599;28;20022;-84
2022/07/09 11:21:27;;;;;;;3.05;1.45;;;35.30;31.70;;;;;;5036408;28;20031;-86
2022/07/09 11:23:52;;;;;;;;;;;35.00;31.10;;;;;;5040233;28;20032;-89
2022/07/09 11:26:19;;;;;;;2.28;1.20;;;34.80;32.20;;;;;;5039910;28;19909;-90
2022/07/09 11:28:47;;;;;;;3.20;1.63;;;34.90;32.70;;;;;;5049721;28;20116;-89
2022/07/09 11:31:13;;;;;;;3.15;1.17;;;34.90;31.70;;;;;;5049138;28;20017;-89
2022/07/09 11:34:23;;;;;;;2.63;1.10;;;34.70;31.80;;;;;;5043204;28;20033;-90
2022/07/09 11:36:36;;;;;;;2.33;1.33;;;34.40;31.10;;;;;;5049125;28;20059;-88
2022/07/09 11:39:01;;;;;;;3.58;1.33;;;34.30;31.20;;;;;;5044410;28;20228;-88
2022/07/09 11:41:27;;;;;;;2.28;1.30;;;34.40;31.40;;;;;;5043030;28;20037;-89
2022/07/09 11:43:53;;;;;;;4.13;1.40;;;34.30;31.50;;;;;;5047008;28;20045;-89
2022/07/09 11:46:19;;;;;;;2.22;1.35;;;34.00;32.20;;;;;;5051834;28;20464;-89
2022/07/09 11:48:52;;;;;;;2.05;1.23;;;34.00;31.30;;;;;;5051334;28;20029;-89
2022/07/09 11:51:34;;;;;;;4.47;1.60;;;33.90;31.70;;;;;;5050216;28;20061;-89
2022/07/09 11:54:02;;;;;;;1.40;1.08;;;33.90;31.30;;;;;;5044951;28;20116;-89
2022/07/09 11:56:45;;;;;;;3.25;1.50;;;33.80;31.50;;;;;;5044500;28;20026;-89
2022/07/09 11:59:11;;;;;;;2.05;1.52;;;33.90;32.50;;;;;;5035467;28;20037;-89
2022/07/09 12:01:38;;;;;;;2.75;1.10;;;33.80;32.60;;;;;;5037257;28;20037;-90
2022/07/09 12:04:03;;;;;;;2.42;1.48;;;33.80;32.40;;;;;;5041608;28;20045;-90
2022/07/09 12:06:29;;;;;;;4.63;1.60;;;33.70;32.70;;;;;;5046483;28;20870;-89
2022/07/09 12:09:02;;;;;;;2.90;1.50;;;33.60;32.40;;;;;;5053755;28;20557;-89
2022/07/09 12:11:29;;;;;;;2.85;1.17;;;33.50;32.20;;;;;;5044059;28;20194;-90
2022/07/09 12:13:55;;;;;;;4.53;1.40;;;33.50;32.40;;;;;;5038929;28;20021;-90
2022/07/09 12:16:21;;;;;;;2.83;1.20;;;33.40;32.10;;;;;;5042596;28;20039;-89
2022/07/09 12:18:47;;;;;;;2.30;1.17;;;33.50;31.80;;;;;;5046490;28;20025;-89
2022/07/09 12:21:12;;;;;;;1.88;0.98;;;33.50;31.40;;;;;;5049458;28;20044;-88
2022/07/09 12:23:38;;;;;;;1.70;1.10;;;33.30;32.00;;;;;;5041749;28;20094;-90
2022/07/09 12:26:04;;;;;;;2.72;1.20;;;33.20;32.60;;;;;;5045529;28;20034;-84
2022/07/09 12:28:29;;;;;;;1.92;1.20;;;33.30;33.90;;;;;;5045392;28;20057;-86
2022/07/09 12:30:55;;;;;;;2.28;1.20;;;33.20;32.90;;;;;;5046432;28;20025;-90
2022/07/09 12:33:21;;;;;;;3.35;1.30;;;33.30;32.00;;;;;;5043082;28;20671;-90
2022/07/09 12:35:46;;;;;;;2.35;1.20;;;33.20;31.60;;;;;;5038939;28;20025;-83
2022/07/09 12:38:12;;;;;;;2.85;1.40;;;33.10;32.10;;;;;;5037888;28;20032;-90
2022/07/09 12:40:38;;;;;;;4.25;1.48;;;33.20;32.60;;;;;;5042214;28;20017;-89
2022/07/09 12:43:03;;;;;;;2.38;1.27;;;33.10;31.90;;;;;;5039143;28;20503;-86
2022/07/09 12:45:29;;;;;;;4.07;1.45;;;33.10;32.30;;;;;;5037459;28;20029;-88